Camden, Indiana
Current Conditions -  °F | °C
As of 6:55 AM on Monday 24 Nov 2014 (Local Time) from KGGP Reporting Station
Overcast Overcast  
Wind Chill: 52°   Ceiling: 1300
Heat Index: 52°   Visibility: 10mi
Dew Point: 52°   Wind: 13mph
Humidity: 100%   Direction: 180°S
Pressure: 29.12"   Gusts: NA
Location:  40.61°N, 86.54°W
Report Text: KGGP 241155Z AUTO 18011KT 10SM BKN013 BKN032 OVC065 11/11 A2912 RMK AO2
Loading
Personal Weather Stations






























Interactive Weather Map New forecast layout! Learn more

10-Day Weather Forecast

Advertisements
Track Severe Weather on mobile